Back to Top
Banner_Quays_at_Mast_2020.jpeg
Banner_VERITY.jpeg
Banner_P42_Kinsale_2004.jpeg
Superyacht_SCOUT.jpg
Kinsale_Trawlers_Banner.jpeg
previous arrow
next arrow

Port Arrivals Report (AIS)

This report is generated from collected AIS (Automated Identification System) signals from vessels entering port.

IMO MMSI Class Flag Vessel Name Vessel type Nav Status Destination Call Sign Latitude Longitude Speed (kts) Course (T) Draught (m) LOA (m) Beam (m) Timestamp
0 265028790 B SE NOMAD 2.0 SAILING. - SG3059 51.6881 -8.49869 3.9 347.3 0 11 3 2024-06-07 15:59:35
0 227185390 B FR MOJO_II SAILING. - FAB2678 51.6883 -8.49873 6 345.7 0 0 0 2024-06-07 14:24:15
8808939 250000527 A IE F/V RACHEL JAY S448 FISHING. - FISHING EI8447 51.6877 -8.49839 7.1 354.7 0 26 8 2024-06-07 03:26:45
0 250103750 B IE HARPY DREDGING / UNDERWATER Ops. - EI7410 51.6887 -8.50188 9.2 346.7 0 13 4 2024-06-06 19:46:34
0 250103750 B IE HARPY DREDGING / UNDERWATER Ops. - EI7410 51.6938 -8.5314 10.7 115.6 0 13 4 2024-06-06 18:27:43
0 250103750 B IE HARPY DREDGING / UNDERWATER Ops. - EI7410 51.6927 -8.53201 0.8 117.6 0 13 4 2024-06-06 18:13:17
0 232032968 B GB SAORSA SAILING. - MIPN5 51.6876 -8.49696 7.9 340.3 0 13 4 2024-06-06 16:51:57
0 227696160 B FR MILONGA SAILING. - FGE9864 51.6871 -8.4987 7.1 354.4 0 10 4 2024-06-06 16:18:57
0 227672150 B FR METEORE SAILING. - FGA6504 51.6886 -8.49771 5.7 348.8 0 16 7 2024-06-06 15:44:27
0 232048803 B GB VIRGINIA Pleasure craft - MNZI3 51.688 -8.49926 12 359.2 0 0 0 2024-06-06 14:52:31
9068598 250000608 A IE HANNAH J - Undefined EI8715 51.688 -8.49856 5.4 350 0 20 6 2024-06-06 12:51:52
0 227337100 B FR MOTUP SAILING. - 105354 51.6893 -8.49802 5.4 356.7 0 15 4 2024-06-06 12:11:57
9049152 250000466 A IE NAOMH PEADAR 2 FISHING. - SEARCHING FOR FISH EI8173 51.6877 -8.49818 102.3 360 5.2 23 8 2024-06-06 09:39:50
0 250001702 A IE ADRIANNE FISHING. Undefined CO EIGX7 51.6873 -8.50002 7.9 350.5 3.5 21 7 2024-06-06 04:50:57
0 250001206 B IE CAPELLA OF KINSALE SAILING. - EIDI6 51.688 -8.50009 4.6 354 0 12 4 2024-06-05 20:31:06
0 250106680 B IE CIRRUS SAILING. - EI7621 51.688 -8.49497 4.2 18.6 0 10 4 2024-06-05 20:17:32
0 250006539 B IE ARTFUL DODJER SAILING. - EI-ZJ-3 51.6874 -8.50111 3.3 358.9 0 11 4 2024-06-05 20:11:08
0 250014322 B IE JALAPENO Pleasure craft - JALAPEN 51.6872 -8.49528 4.1 358.4 0 16 5 2024-06-05 20:10:19
0 250006727 B IE CHANCER Pleasure craft - EIA2005 51.6882 -8.49569 3.8 354.2 0 17 3 2024-06-05 20:09:26
0 250004059 B IE JUSTUS SAILING. - EI-RR-6 51.6875 -8.49544 4.4 347.3 0 11 3 2024-06-05 20:08:27